sensor_id;sensor_type;location;lat;lon;timestamp;pressure;altitude;pressure_sealevel;temperature;humidity
48563;BME280;34981;49.104;11.396;2022-10-16T00:02:25;99169.25;;;13.43;100.00
48563;BME280;34981;49.104;11.396;2022-10-16T00:04:53;99177.56;;;13.41;100.00
48563;BME280;34981;49.104;11.396;2022-10-16T00:07:21;99160.53;;;13.41;100.00
48563;BME280;34981;49.104;11.396;2022-10-16T00:09:48;99155.13;;;13.41;100.00
48563;BME280;34981;49.104;11.396;2022-10-16T00:12:15;99166.97;;;13.40;100.00
48563;BME280;34981;49.104;11.396;2022-10-16T00:14:42;99172.38;;;13.40;100.00
48563;BME280;34981;49.104;11.396;2022-10-16T00:17:10;99165.31;;;13.39;100.00
48563;BME280;34981;49.104;11.396;2022-10-16T00:19:38;99160.94;;;13.38;100.00
48563;BME280;34981;49.104;11.396;2022-10-16T00:22:05;99149.09;;;13.39;100.00
48563;BME280;34981;49.104;11.396;2022-10-16T00:24:50;99153.66;;;13.38;100.00
48563;BME280;34981;49.104;11.396;2022-10-16T00:27:17;99162.59;;;13.39;100.00
48563;BME280;34981;49.104;11.396;2022-10-16T00:29:44;99159.28;;;13.37;100.00
48563;BME280;34981;49.104;11.396;2022-10-16T00:32:11;99162.00;;;13.37;100.00
48563;BME280;34981;49.104;11.396;2022-10-16T00:34:38;99155.97;;;13.35;100.00
48563;BME280;34981;49.104;11.396;2022-10-16T00:37:05;99159.69;;;13.34;100.00
48563;BME280;34981;49.104;11.396;2022-10-16T00:39:32;99166.78;;;13.35;100.00
48563;BME280;34981;49.104;11.396;2022-10-16T00:41:59;99165.09;;;13.34;100.00
48563;BME280;34981;49.104;11.396;2022-10-16T00:47:13;99163.44;;;13.33;100.00
48563;BME280;34981;49.104;11.396;2022-10-16T00:49:42;99162.59;;;13.32;100.00
48563;BME280;34981;49.104;11.396;2022-10-16T00:52:09;99166.34;;;13.31;100.00
48563;BME280;34981;49.104;11.396;2022-10-16T00:54:37;99172.59;;;13.32;100.00
48563;BME280;34981;49.104;11.396;2022-10-16T00:57:05;99174.66;;;13.30;100.00
48563;BME280;34981;49.104;11.396;2022-10-16T00:59:34;99177.34;;;13.30;100.00
48563;BME280;34981;49.104;11.396;2022-10-16T01:02:02;99171.16;;;13.29;100.00
48563;BME280;34981;49.104;11.396;2022-10-16T01:04:31;99167.59;;;13.29;100.00
48563;BME280;34981;49.104;11.396;2022-10-16T01:12:22;99160.34;;;13.29;100.00
48563;BME280;34981;49.104;11.396;2022-10-16T01:17:25;99166.53;;;13.30;100.00
48563;BME280;34981;49.104;11.396;2022-10-16T01:20:03;99166.53;;;13.30;100.00
48563;BME280;34981;49.104;11.396;2022-10-16T01:23:18;99161.97;;;13.30;100.00
48563;BME280;34981;49.104;11.396;2022-10-16T01:25:34;99153.03;;;13.30;100.00
48563;BME280;34981;49.104;11.396;2022-10-16T01:28:04;99148.06;;;13.27;100.00
48563;BME280;34981;49.104;11.396;2022-10-16T01:30:35;99160.09;;;13.24;100.00
48563;BME280;34981;49.104;11.396;2022-10-16T01:33:06;99169.25;;;13.23;100.00
48563;BME280;34981;49.104;11.396;2022-10-16T01:35:37;99175.50;;;13.23;100.00
48563;BME280;34981;49.104;11.396;2022-10-16T01:38:19;99186.28;;;13.23;100.00
48563;BME280;34981;49.104;11.396;2022-10-16T01:40:50;99180.06;;;13.23;100.00
48563;BME280;34981;49.104;11.396;2022-10-16T01:43:25;99184.44;;;13.24;100.00
48563;BME280;34981;49.104;11.396;2022-10-16T01:45:54;99177.16;;;13.24;100.00
48563;BME280;34981;49.104;11.396;2022-10-16T01:48:22;99177.34;;;13.23;100.00
48563;BME280;34981;49.104;11.396;2022-10-16T01:50:53;99180.88;;;13.23;100.00
48563;BME280;34981;49.104;11.396;2022-10-16T01:53:21;99174.66;;;13.23;100.00
48563;BME280;34981;49.104;11.396;2022-10-16T01:55:49;99182.75;;;13.23;100.00
48563;BME280;34981;49.104;11.396;2022-10-16T01:58:16;99180.88;;;13.23;100.00
48563;BME280;34981;49.104;11.396;2022-10-16T02:00:44;99183.59;;;13.23;100.00
48563;BME280;34981;49.104;11.396;2022-10-16T02:03:13;99180.88;;;13.23;100.00
48563;BME280;34981;49.104;11.396;2022-10-16T02:05:46;99172.19;;;13.21;100.00
48563;BME280;34981;49.104;11.396;2022-10-16T02:08:14;99177.59;;;13.21;100.00
48563;BME280;34981;49.104;11.396;2022-10-16T02:10:41;99194.63;;;13.22;100.00
48563;BME280;34981;49.104;11.396;2022-10-16T02:13:31;99197.53;;;13.20;100.00
48563;BME280;34981;49.104;11.396;2022-10-16T02:15:55;99183.19;;;13.20;100.00
48563;BME280;34981;49.104;11.396;2022-10-16T02:18:22;99185.06;;;13.19;100.00
48563;BME280;34981;49.104;11.396;2022-10-16T02:20:55;99197.53;;;13.20;100.00
48563;BME280;34981;49.104;11.396;2022-10-16T02:23:37;99194.84;;;13.20;100.00
48563;BME280;34981;49.104;11.396;2022-10-16T02:26:10;99192.13;;;13.20;100.00
48563;BME280;34981;49.104;11.396;2022-10-16T02:28:45;99194.19;;;13.18;100.00
48563;BME280;34981;49.104;11.396;2022-10-16T02:31:16;99189.63;;;13.19;100.00
48563;BME280;34981;49.104;11.396;2022-10-16T02:33:45;99188.78;;;13.18;100.00
48563;BME280;34981;49.104;11.396;2022-10-16T02:36:13;99176.13;;;13.19;100.00
48563;BME280;34981;49.104;11.396;2022-10-16T02:38:40;99174.25;;;13.19;100.00
48563;BME280;34981;49.104;11.396;2022-10-16T02:41:07;99174.25;;;13.19;100.00
48563;BME280;34981;49.104;11.396;2022-10-16T02:43:34;99188.78;;;13.18;100.00
48563;BME280;34981;49.104;11.396;2022-10-16T02:46:01;99189.63;;;13.19;100.00
48563;BME280;34981;49.104;11.396;2022-10-16T02:48:29;99183.41;;;13.18;100.00
48563;BME280;34981;49.104;11.396;2022-10-16T02:50:56;99186.09;;;13.18;100.00
48563;BME280;34981;49.104;11.396;2022-10-16T02:53:24;99187.97;;;13.18;100.00
48563;BME280;34981;49.104;11.396;2022-10-16T02:55:51;99183.41;;;13.18;100.00
48563;BME280;34981;49.104;11.396;2022-10-16T02:58:18;99176.31;;;13.17;100.00
48563;BME280;34981;49.104;11.396;2022-10-16T03:00:45;99181.72;;;13.17;100.00
48563;BME280;34981;49.104;11.396;2022-10-16T03:03:13;99178.19;;;13.17;100.00
48563;BME280;34981;49.104;11.396;2022-10-16T03:05:40;99178.38;;;13.15;100.00
48563;BME280;34981;49.104;11.396;2022-10-16T03:08:08;99180.28;;;13.15;100.00
48563;BME280;34981;49.104;11.396;2022-10-16T03:10:35;99187.56;;;13.14;100.00
48563;BME280;34981;49.104;11.396;2022-10-16T03:13:02;99182.53;;;13.11;100.00
48563;BME280;34981;49.104;11.396;2022-10-16T03:15:29;99177.13;;;13.11;100.00
48563;BME280;34981;49.104;11.396;2022-10-16T03:17:57;99180.03;;;13.10;100.00
48563;BME280;34981;49.104;11.396;2022-10-16T03:20:24;99174.81;;;13.08;100.00
48563;BME280;34981;49.104;11.396;2022-10-16T03:22:51;99174.22;;;13.06;100.00
48563;BME280;34981;49.104;11.396;2022-10-16T03:25:19;99170.69;;;13.06;100.00
48563;BME280;34981;49.104;11.396;2022-10-16T03:27:46;99172.56;;;13.05;100.00
48563;BME280;34981;49.104;11.396;2022-10-16T03:30:13;99174.63;;;13.03;100.00
48563;BME280;34981;49.104;11.396;2022-10-16T03:32:40;99177.31;;;13.03;100.00
48563;BME280;34981;49.104;11.396;2022-10-16T03:35:07;99177.53;;;13.02;100.00
48563;BME280;34981;49.104;11.396;2022-10-16T03:37:34;99183.75;;;13.02;100.00
48563;BME280;34981;49.104;11.396;2022-10-16T03:40:02;99177.75;;;13.00;100.00
48563;BME280;34981;49.104;11.396;2022-10-16T03:42:29;99168.81;;;13.00;100.00
48563;BME280;34981;49.104;11.396;2022-10-16T03:44:56;99160.09;;;12.98;100.00
48563;BME280;34981;49.104;11.396;2022-10-16T03:47:23;99168.38;;;12.96;100.00
48563;BME280;34981;49.104;11.396;2022-10-16T03:49:51;99167.75;;;12.94;100.00
48563;BME280;34981;49.104;11.396;2022-10-16T03:52:18;99164.22;;;12.94;100.00
48563;BME280;34981;49.104;11.396;2022-10-16T03:54:50;99164.66;;;12.91;100.00
48563;BME280;34981;49.104;11.396;2022-10-16T03:57:17;99169.63;;;12.87;100.00
48563;BME280;34981;49.104;11.396;2022-10-16T03:59:44;99162.97;;;12.83;100.00
48563;BME280;34981;49.104;11.396;2022-10-16T04:02:12;99170.44;;;12.81;100.00
48563;BME280;34981;49.104;11.396;2022-10-16T04:04:39;99169.81;;;12.79;100.00
48563;BME280;34981;49.104;11.396;2022-10-16T04:07:06;99177.28;;;12.77;100.00
48563;BME280;34981;49.104;11.396;2022-10-16T04:09:33;99176.66;;;12.75;100.00
48563;BME280;34981;49.104;11.396;2022-10-16T04:12:00;99175.00;;;12.74;100.00
48563;BME280;34981;49.104;11.396;2022-10-16T04:14:27;99176.88;;;12.73;100.00
48563;BME280;34981;49.104;11.396;2022-10-16T04:16:54;99173.31;;;12.73;100.00
48563;BME280;34981;49.104;11.396;2022-10-16T04:19:21;99181.44;;;12.73;100.00
48563;BME280;34981;49.104;11.396;2022-10-16T04:21:48;99179.56;;;12.73;100.00
48563;BME280;34981;49.104;11.396;2022-10-16T04:24:15;99178.72;;;12.73;100.00
48563;BME280;34981;49.104;11.396;2022-10-16T04:26:42;99178.72;;;12.73;100.00
48563;BME280;34981;49.104;11.396;2022-10-16T04:29:09;99184.97;;;12.73;100.00
48563;BME280;34981;49.104;11.396;2022-10-16T04:31:36;99182.25;;;12.73;100.00
48563;BME280;34981;49.104;11.396;2022-10-16T04:34:03;99182.06;;;12.75;100.00
48563;BME280;34981;49.104;11.396;2022-10-16T04:36:30;99183.09;;;12.74;100.00
48563;BME280;34981;49.104;11.396;2022-10-16T04:38:57;99189.53;;;12.73;100.00
48563;BME280;34981;49.104;11.396;2022-10-16T04:41:24;99180.59;;;12.72;100.00
48563;BME280;34981;49.104;11.396;2022-10-16T04:43:51;99188.69;;;12.72;100.00
48563;BME280;34981;49.104;11.396;2022-10-16T04:46:18;99193.25;;;12.72;100.00
48563;BME280;34981;49.104;11.396;2022-10-16T04:48:46;99187.84;;;12.72;100.00
48563;BME280;34981;49.104;11.396;2022-10-16T04:51:13;99190.56;;;12.72;100.00
48563;BME280;34981;49.104;11.396;2022-10-16T04:53:40;99182.47;;;12.72;100.00
48563;BME280;34981;49.104;11.396;2022-10-16T04:56:08;99180.81;;;12.71;100.00
48563;BME280;34981;49.104;11.396;2022-10-16T04:58:35;99177.50;;;12.69;100.00
48563;BME280;34981;49.104;11.396;2022-10-16T05:01:02;99159.00;;;12.66;100.00
48563;BME280;34981;49.104;11.396;2022-10-16T05:03:29;99152.75;;;12.65;100.00
48563;BME280;34981;49.104;11.396;2022-10-16T05:06:01;99147.59;;;12.64;100.00
48563;BME280;34981;49.104;11.396;2022-10-16T05:08:28;99150.28;;;12.64;100.00
48563;BME280;34981;49.104;11.396;2022-10-16T05:10:55;99157.56;;;12.63;100.00
48563;BME280;34981;49.104;11.396;2022-10-16T05:13:22;99156.91;;;12.61;100.00
48563;BME280;34981;49.104;11.396;2022-10-16T05:15:50;99149.84;;;12.60;100.00
48563;BME280;34981;49.104;11.396;2022-10-16T05:18:17;99157.94;;;12.60;100.00
48563;BME280;34981;49.104;11.396;2022-10-16T05:20:44;99152.34;;;12.62;100.00
48563;BME280;34981;49.104;11.396;2022-10-16T05:23:11;99152.34;;;12.62;100.00
48563;BME280;34981;49.104;11.396;2022-10-16T05:25:39;99153.19;;;12.62;100.00
48563;BME280;34981;49.104;11.396;2022-10-16T05:28:06;99154.00;;;12.63;100.00
48563;BME280;34981;49.104;11.396;2022-10-16T05:30:33;99162.13;;;12.63;100.00
48563;BME280;34981;49.104;11.396;2022-10-16T05:33:01;99165.84;;;12.62;100.00
48563;BME280;34981;49.104;11.396;2022-10-16T05:35:28;99167.50;;;12.63;100.00
48563;BME280;34981;49.104;11.396;2022-10-16T05:37:55;99176.63;;;12.62;100.00
48563;BME280;34981;49.104;11.396;2022-10-16T05:40:22;99189.31;;;12.61;100.00
48563;BME280;34981;49.104;11.396;2022-10-16T05:42:49;99194.69;;;12.61;100.00
48563;BME280;34981;49.104;11.396;2022-10-16T05:45:16;99187.63;;;12.60;100.00
48563;BME280;34981;49.104;11.396;2022-10-16T05:47:43;99191.56;;;12.58;100.00
48563;BME280;34981;49.104;11.396;2022-10-16T05:50:10;99195.28;;;12.57;100.00
48563;BME280;34981;49.104;11.396;2022-10-16T05:52:37;99200.69;;;12.57;100.00
48563;BME280;34981;49.104;11.396;2022-10-16T05:55:05;99202.59;;;12.56;100.00
48563;BME280;34981;49.104;11.396;2022-10-16T05:57:32;99211.06;;;12.53;100.00
48563;BME280;34981;49.104;11.396;2022-10-16T05:59:59;99195.72;;;12.54;100.00
48563;BME280;34981;49.104;11.396;2022-10-16T06:02:26;99199.44;;;12.53;100.00
48563;BME280;34981;49.104;11.396;2022-10-16T06:04:53;99196.34;;;12.49;100.00
48563;BME280;34981;49.104;11.396;2022-10-16T06:07:21;99200.25;;;12.46;100.00
48563;BME280;34981;49.104;11.396;2022-10-16T06:09:51;99196.91;;;12.44;100.00
48563;BME280;34981;49.104;11.396;2022-10-16T06:12:18;99204.81;;;12.46;100.00
48563;BME280;34981;49.104;11.396;2022-10-16T06:14:46;99206.28;;;12.48;100.00
48563;BME280;34981;49.104;11.396;2022-10-16T06:17:16;99209.59;;;12.51;100.00
48563;BME280;34981;49.104;11.396;2022-10-16T06:19:43;99216.84;;;12.50;100.00
48563;BME280;34981;49.104;11.396;2022-10-16T06:22:10;99223.72;;;12.53;100.00
48563;BME280;34981;49.104;11.396;2022-10-16T06:24:37;99232.28;;;12.63;100.00
48563;BME280;34981;49.104;11.396;2022-10-16T06:27:04;99236.88;;;12.75;100.00
48563;BME280;34981;49.104;11.396;2022-10-16T06:29:31;99238.38;;;12.84;100.00
48563;BME280;34981;49.104;11.396;2022-10-16T06:32:01;99245.84;;;12.89;100.00
48563;BME280;34981;49.104;11.396;2022-10-16T06:34:28;99251.88;;;12.91;100.00
48563;BME280;34981;49.104;11.396;2022-10-16T06:36:55;99253.75;;;12.91;100.00
48563;BME280;34981;49.104;11.396;2022-10-16T06:39:22;99264.34;;;12.92;100.00
48563;BME280;34981;49.104;11.396;2022-10-16T06:41:50;99267.66;;;12.94;100.00
48563;BME280;34981;49.104;11.396;2022-10-16T06:44:17;99271.41;;;12.93;100.00
48563;BME280;34981;49.104;11.396;2022-10-16T06:46:44;99266.63;;;12.95;100.00
48563;BME280;34981;49.104;11.396;2022-10-16T06:49:11;99275.59;;;13.02;100.00
48563;BME280;34981;49.104;11.396;2022-10-16T06:51:38;99291.25;;;13.20;100.00
48563;BME280;34981;49.104;11.396;2022-10-16T06:54:09;99299.81;;;13.37;100.00
48563;BME280;34981;49.104;11.396;2022-10-16T06:56:36;99311.03;;;13.60;100.00
48563;BME280;34981;49.104;11.396;2022-10-16T06:59:03;99318.94;;;13.68;100.00
48563;BME280;34981;49.104;11.396;2022-10-16T07:01:31;99318.94;;;13.68;100.00
48563;BME280;34981;49.104;11.396;2022-10-16T07:03:58;99321.03;;;13.79;100.00
48563;BME280;34981;49.104;11.396;2022-10-16T07:06:26;99331.84;;;13.99;100.00
48563;BME280;34981;49.104;11.396;2022-10-16T07:08:54;99327.91;;;13.95;100.00
48563;BME280;34981;49.104;11.396;2022-10-16T07:11:21;99347.44;;;14.10;100.00
48563;BME280;34981;49.104;11.396;2022-10-16T07:13:49;99349.69;;;14.33;100.00
48563;BME280;34981;49.104;11.396;2022-10-16T07:16:26;99342.66;;;14.19;100.00
48563;BME280;34981;49.104;11.396;2022-10-16T07:18:54;99340.97;;;14.18;100.00
48563;BME280;34981;49.104;11.396;2022-10-16T07:21:28;99336.63;;;14.10;100.00
48563;BME280;34981;49.104;11.396;2022-10-16T07:23:57;99341.00;;;13.98;100.00
48563;BME280;34981;49.104;11.396;2022-10-16T07:26:25;99346.22;;;13.93;100.00
48563;BME280;34981;49.104;11.396;2022-10-16T07:28:52;99336.00;;;13.88;100.00
48563;BME280;34981;49.104;11.396;2022-10-16T07:31:20;99345.19;;;13.87;100.00
48563;BME280;34981;49.104;11.396;2022-10-16T07:33:47;99357.44;;;13.90;100.00
48563;BME280;34981;49.104;11.396;2022-10-16T07:36:15;99357.63;;;13.88;100.00
48563;BME280;34981;49.104;11.396;2022-10-16T07:38:42;99371.78;;;13.90;100.00
48563;BME280;34981;49.104;11.396;2022-10-16T07:41:11;99370.13;;;13.89;100.00
48563;BME280;34981;49.104;11.396;2022-10-16T07:43:38;99374.69;;;13.95;100.00
48563;BME280;34981;49.104;11.396;2022-10-16T07:46:05;99376.81;;;14.00;100.00
48563;BME280;34981;49.104;11.396;2022-10-16T07:48:33;99377.63;;;14.00;100.00
48563;BME280;34981;49.104;11.396;2022-10-16T07:51:04;99377.19;;;14.03;100.00
48563;BME280;34981;49.104;11.396;2022-10-16T07:53:32;99384.72;;;14.08;100.00
48563;BME280;34981;49.104;11.396;2022-10-16T07:55:59;99393.44;;;14.10;100.00
48563;BME280;34981;49.104;11.396;2022-10-16T07:58:27;99397.19;;;14.16;100.00
48563;BME280;34981;49.104;11.396;2022-10-16T08:00:55;99395.72;;;14.20;100.00
48563;BME280;34981;49.104;11.396;2022-10-16T08:03:22;99402.41;;;14.24;100.00
48563;BME280;34981;49.104;11.396;2022-10-16T08:05:50;99398.44;;;14.26;100.00
48563;BME280;34981;49.104;11.396;2022-10-16T08:08:17;99401.34;;;14.31;100.00
48563;BME280;34981;49.104;11.396;2022-10-16T08:10:44;99401.13;;;14.33;100.00
48563;BME280;34981;49.104;11.396;2022-10-16T08:13:12;99402.59;;;14.35;100.00
48563;BME280;34981;49.104;11.396;2022-10-16T08:15:42;99401.56;;;14.36;100.00
48563;BME280;34981;49.104;11.396;2022-10-16T08:18:10;99403.84;;;14.33;100.00
48563;BME280;34981;49.104;11.396;2022-10-16T08:20:38;99409.25;;;14.33;100.00
48563;BME280;34981;49.104;11.396;2022-10-16T08:23:05;99409.50;;;14.38;100.00
48563;BME280;34981;49.104;11.396;2022-10-16T08:25:36;99410.94;;;14.47;100.00
48563;BME280;34981;49.104;11.396;2022-10-16T08:28:04;99415.94;;;14.50;100.00
48563;BME280;34981;49.104;11.396;2022-10-16T08:30:33;99424.47;;;14.60;100.00
48563;BME280;34981;49.104;11.396;2022-10-16T08:33:01;99441.91;;;14.77;100.00
48563;BME280;34981;49.104;11.396;2022-10-16T08:35:28;99450.47;;;14.81;100.00
48563;BME280;34981;49.104;11.396;2022-10-16T08:37:56;99457.94;;;14.86;100.00
48563;BME280;34981;49.104;11.396;2022-10-16T08:40:27;99453.78;;;14.90;100.00
48563;BME280;34981;49.104;11.396;2022-10-16T08:50:40;99490.88;;;15.67;100.00
48563;BME280;34981;49.104;11.396;2022-10-16T08:53:09;99498.34;;;15.78;100.00
48563;BME280;34981;49.104;11.396;2022-10-16T08:55:38;99490.59;;;15.81;100.00
48563;BME280;34981;49.104;11.396;2022-10-16T08:58:12;99498.00;;;15.99;100.00
48563;BME280;34981;49.104;11.396;2022-10-16T09:00:40;99518.09;;;16.23;100.00
48563;BME280;34981;49.104;11.396;2022-10-16T09:05:53;99505.81;;;16.20;100.00
48563;BME280;34981;49.104;11.396;2022-10-16T09:08:34;99508.78;;;16.12;100.00
48563;BME280;34981;49.104;11.396;2022-10-16T09:11:20;99527.69;;;16.25;100.00
48563;BME280;34981;49.104;11.396;2022-10-16T09:16:42;99543.44;;;16.73;100.00
48563;BME280;34981;49.104;11.396;2022-10-16T09:21:39;99569.78;;;16.97;100.00
48563;BME280;34981;49.104;11.396;2022-10-16T09:24:11;99580.53;;;17.10;100.00
48563;BME280;34981;49.104;11.396;2022-10-16T09:26:40;99568.06;;;17.03;100.00
48563;BME280;34981;49.104;11.396;2022-10-16T09:29:08;99568.97;;;16.97;100.00
48563;BME280;34981;49.104;11.396;2022-10-16T09:31:38;99569.91;;;16.84;100.00
48563;BME280;34981;49.104;11.396;2022-10-16T09:34:05;99563.91;;;16.76;100.00
48563;BME280;34981;49.104;11.396;2022-10-16T09:36:40;99573.63;;;16.90;100.00
48563;BME280;34981;49.104;11.396;2022-10-16T09:39:09;99578.22;;;16.89;100.00
48563;BME280;34981;49.104;11.396;2022-10-16T09:41:41;99600.03;;;17.07;100.00
48563;BME280;34981;49.104;11.396;2022-10-16T09:46:46;99592.44;;;16.91;100.00
48563;BME280;34981;49.104;11.396;2022-10-16T09:49:23;99607.22;;;16.95;100.00
48563;BME280;34981;49.104;11.396;2022-10-16T09:51:51;99611.56;;;17.03;100.00
48563;BME280;34981;49.104;11.396;2022-10-16T09:54:29;99613.00;;;17.05;100.00
48563;BME280;34981;49.104;11.396;2022-10-16T09:57:06;99625.44;;;17.20;100.00
48563;BME280;34981;49.104;11.396;2022-10-16T09:59:33;99640.78;;;17.32;100.00
48563;BME280;34981;49.104;11.396;2022-10-16T10:02:02;99646.47;;;17.31;100.00
48563;BME280;34981;49.104;11.396;2022-10-16T10:04:37;99643.41;;;17.21;100.00
48563;BME280;34981;49.104;11.396;2022-10-16T10:07:05;99643.34;;;17.27;100.00
48563;BME280;34981;49.104;11.396;2022-10-16T10:09:42;99652.97;;;17.30;100.00
48563;BME280;34981;49.104;11.396;2022-10-16T10:12:17;99663.00;;;17.29;100.00
48563;BME280;34981;49.104;11.396;2022-10-16T10:14:52;99655.56;;;17.18;100.00
48563;BME280;34981;49.104;11.396;2022-10-16T10:17:26;99657.91;;;17.15;100.00
48563;BME280;34981;49.104;11.396;2022-10-16T10:19:55;99655.19;;;17.15;100.00
48563;BME280;34981;49.104;11.396;2022-10-16T10:22:25;99666.84;;;17.22;100.00
48563;BME280;34981;49.104;11.396;2022-10-16T10:27:29;99668.44;;;17.29;100.00
48563;BME280;34981;49.104;11.396;2022-10-16T10:30:01;99669.06;;;17.31;100.00
48563;BME280;34981;49.104;11.396;2022-10-16T10:32:42;99673.81;;;17.36;100.00
48563;BME280;34981;49.104;11.396;2022-10-16T10:35:17;99656.06;;;17.33;100.00
48563;BME280;34981;49.104;11.396;2022-10-16T10:45:46;99651.78;;;17.44;100.00
48563;BME280;34981;49.104;11.396;2022-10-16T10:48:20;99657.88;;;17.39;100.00
48563;BME280;34981;49.104;11.396;2022-10-16T10:50:49;99666.66;;;17.41;100.00
48563;BME280;34981;49.104;11.396;2022-10-16T11:01:18;99696.28;;;17.49;100.00
48563;BME280;34981;49.104;11.396;2022-10-16T11:06:40;99714.84;;;17.59;100.00
48563;BME280;34981;49.104;11.396;2022-10-16T11:12:01;99721.25;;;17.71;100.00
48563;BME280;34981;49.104;11.396;2022-10-16T11:14:40;99722.44;;;17.75;100.00
48563;BME280;34981;49.104;11.396;2022-10-16T11:17:10;99735.78;;;17.83;100.00
48563;BME280;34981;49.104;11.396;2022-10-16T11:19:49;99730.25;;;17.90;100.00
48563;BME280;34981;49.104;11.396;2022-10-16T11:22:19;99736.25;;;17.99;100.00
48563;BME280;34981;49.104;11.396;2022-10-16T11:24:49;99729.97;;;17.98;100.00
48563;BME280;34981;49.104;11.396;2022-10-16T11:27:23;99721.88;;;17.92;100.00
48563;BME280;34981;49.104;11.396;2022-10-16T11:30:02;99704.28;;;17.94;100.00
48563;BME280;34981;49.104;11.396;2022-10-16T11:32:32;99704.28;;;17.94;100.00
48563;BME280;34981;49.104;11.396;2022-10-16T11:35:15;99705.88;;;18.02;100.00
48563;BME280;34981;49.104;11.396;2022-10-16T11:37:46;99698.59;;;18.14;100.00
48563;BME280;34981;49.104;11.396;2022-10-16T11:43:22;99670.44;;;18.20;100.00
48563;BME280;34981;49.104;11.396;2022-10-16T11:45:52;99674.25;;;18.19;100.00
48563;BME280;34981;49.104;11.396;2022-10-16T11:48:31;99683.94;;;18.33;100.00
48563;BME280;34981;49.104;11.396;2022-10-16T11:51:05;99671.63;;;18.42;100.00
48563;BME280;34981;49.104;11.396;2022-10-16T11:56:03;99660.81;;;18.54;100.00
48563;BME280;34981;49.104;11.396;2022-10-16T11:58:35;99650.75;;;18.54;100.00
48563;BME280;34981;49.104;11.396;2022-10-16T12:03:54;99629.56;;;18.56;100.00
48563;BME280;34981;49.104;11.396;2022-10-16T12:08:55;99563.69;;;18.29;100.00
48563;BME280;34981;49.104;11.396;2022-10-16T12:14:05;99519.69;;;18.14;100.00
48563;BME280;34981;49.104;11.396;2022-10-16T12:16:33;99493.31;;;18.15;100.00
48563;BME280;34981;49.104;11.396;2022-10-16T12:21:36;99480.19;;;18.23;100.00
48563;BME280;34981;49.104;11.396;2022-10-16T12:24:04;99470.03;;;18.31;100.00
48563;BME280;34981;49.104;11.396;2022-10-16T12:26:32;99461.13;;;18.35;100.00
48563;BME280;34981;49.104;11.396;2022-10-16T12:29:14;99438.06;;;18.38;100.00
48563;BME280;34981;49.104;11.396;2022-10-16T12:31:45;99413.31;;;18.39;100.00
48563;BME280;34981;49.104;11.396;2022-10-16T12:34:33;99405.13;;;18.39;100.00
48563;BME280;34981;49.104;11.396;2022-10-16T12:37:37;99382.28;;;18.40;100.00
48563;BME280;34981;49.104;11.396;2022-10-16T12:39:56;99367.00;;;18.39;100.00
48563;BME280;34981;49.104;11.396;2022-10-16T12:44:55;99336.78;;;18.29;100.00
48563;BME280;34981;49.104;11.396;2022-10-16T12:47:24;99316.78;;;18.23;100.00
48563;BME280;34981;49.104;11.396;2022-10-16T12:50:02;99292.28;;;18.23;100.00
48563;BME280;34981;49.104;11.396;2022-10-16T12:52:38;99283.16;;;18.18;100.00
48563;BME280;34981;49.104;11.396;2022-10-16T12:55:05;99277.22;;;18.21;100.00
48563;BME280;34981;49.104;11.396;2022-10-16T13:05:41;99239.59;;;18.18;100.00
48563;BME280;34981;49.104;11.396;2022-10-16T13:10:55;99235.19;;;18.28;100.00
48563;BME280;34981;49.104;11.396;2022-10-16T13:26:22;99180.91;;;18.10;100.00
48563;BME280;34981;49.104;11.396;2022-10-16T13:28:52;99174.38;;;18.11;100.00
48563;BME280;34981;49.104;11.396;2022-10-16T13:31:21;99170.84;;;18.11;100.00
48563;BME280;34981;49.104;11.396;2022-10-16T13:33:51;99162.06;;;18.09;100.00
48563;BME280;34981;49.104;11.396;2022-10-16T13:38:48;99164.19;;;18.07;100.00
48563;BME280;34981;49.104;11.396;2022-10-16T13:41:18;99146.19;;;18.06;100.00
48563;BME280;34981;49.104;11.396;2022-10-16T13:43:49;99154.63;;;18.04;100.00
48563;BME280;34981;49.104;11.396;2022-10-16T13:46:18;99147.63;;;18.08;100.00
48563;BME280;34981;49.104;11.396;2022-10-16T13:49:02;99154.50;;;18.11;100.00
48563;BME280;34981;49.104;11.396;2022-10-16T13:51:30;99146.88;;;18.13;100.00
48563;BME280;34981;49.104;11.396;2022-10-16T13:53:58;99146.06;;;18.12;100.00
48563;BME280;34981;49.104;11.396;2022-10-16T13:56:26;99140.63;;;18.12;100.00
48563;BME280;34981;49.104;11.396;2022-10-16T13:59:04;99143.34;;;18.12;100.00
48563;BME280;34981;49.104;11.396;2022-10-16T14:01:33;99131.38;;;18.13;100.00
48563;BME280;34981;49.104;11.396;2022-10-16T14:04:05;99140.16;;;18.15;100.00
48563;BME280;34981;49.104;11.396;2022-10-16T14:06:32;99145.97;;;18.19;100.00
48563;BME280;34981;49.104;11.396;2022-10-16T14:09:07;99135.06;;;18.19;100.00
48563;BME280;34981;49.104;11.396;2022-10-16T14:11:37;99142.13;;;18.20;100.00
48563;BME280;34981;49.104;11.396;2022-10-16T14:14:05;99147.59;;;18.20;100.00
48563;BME280;34981;49.104;11.396;2022-10-16T14:16:37;99141.31;;;18.19;100.00
48563;BME280;34981;49.104;11.396;2022-10-16T14:19:13;99151.41;;;18.19;100.00
48563;BME280;34981;49.104;11.396;2022-10-16T14:21:41;99156.84;;;18.19;100.00
48563;BME280;34981;49.104;11.396;2022-10-16T14:24:12;99155.75;;;18.20;100.00
48563;BME280;34981;49.104;11.396;2022-10-16T14:26:43;99156.59;;;18.20;100.00
48563;BME280;34981;49.104;11.396;2022-10-16T14:29:19;99151.41;;;18.19;100.00
48563;BME280;34981;49.104;11.396;2022-10-16T14:34:33;99148.41;;;18.20;100.00